Time;durP1;ratioP1;P1;durP2;ratioP2;P2;SDS_P1;SDS_P2;PMS_P1;PMS_P2;Temp;Humidity;BMP_temperature;BMP_pressure;BME280_temperature;BME280_humidity;BME280_pressure;Samples;Min_cycle;Max_cycle;Signal;HPM_P1;HPM_P2
2023/02/07 00:00:49;;;;;;;208.90;106.80;;;;;;;-128.00;-1.00;-1.00;104944;1264;1003397;-75
2023/02/07 00:03:36;;;;;;;208.90;101.70;;;;;;;-128.00;-1.00;-1.00;104970;1264;1056710;-75
2023/02/07 00:06:05;;;;;;;203.20;100.40;;;;;;;-128.00;-1.00;-1.00;104164;1264;1004405;-76
2023/02/07 00:08:32;;;;;;;212.50;101.90;;;;;;;-128.00;-1.00;-1.00;104178;1264;1047277;-75
2023/02/07 00:11:04;;;;;;;203.50;97.80;;;;;;;-128.00;-1.00;-1.00;104989;1264;1004088;-75
2023/02/07 00:13:31;;;;;;;196.90;94.40;;;;;;;-128.00;-1.00;-1.00;104229;1264;1063079;-75
2023/02/07 00:15:58;;;;;;;209.60;98.10;;;;;;;-128.00;-1.00;-1.00;104967;1264;1004388;-75
2023/02/07 00:18:25;;;;;;;202.00;97.40;;;;;;;-128.00;-1.00;-1.00;104953;1264;1004893;-74
2023/02/07 00:21:04;;;;;;;179.20;94.10;;;;;;;-128.00;-1.00;-1.00;104952;1264;1004336;-74
2023/02/07 00:23:31;;;;;;;192.90;97.20;;;;;;;-128.00;-1.00;-1.00;104831;1264;1046635;-74
2023/02/07 00:25:58;;;;;;;197.20;98.80;;;;;;;-128.00;-1.00;-1.00;104804;1264;1003692;-74
2023/02/07 00:28:25;;;;;;;202.10;100.70;;;;;;;-128.00;-1.00;-1.00;104955;1264;1003722;-76
2023/02/07 00:31:21;;;;;;;199.50;98.40;;;;;;;-128.00;-1.00;-1.00;104206;1264;1004226;-76
2023/02/07 00:33:49;;;;;;;212.50;102.30;;;;;;;-128.00;-1.00;-1.00;104156;1264;1046573;-76
2023/02/07 00:36:19;;;;;;;191.10;98.80;;;;;;;-128.00;-1.00;-1.00;104970;1264;1004722;-75
2023/02/07 00:38:47;;;;;;;191.90;100.30;;;;;;;-128.00;-1.00;-1.00;104192;1264;1063682;-74
2023/02/07 00:41:17;;;;;;;199.10;103.40;;;;;;;-128.00;-1.00;-1.00;104195;1264;1003922;-75
2023/02/07 00:43:45;;;;;;;202.60;101.80;;;;;;;-128.00;-1.00;-1.00;104840;1264;1057913;-74
2023/02/07 00:46:13;;;;;;;200.70;103.90;;;;;;;-128.00;-1.00;-1.00;104061;1264;1047381;-74
2023/02/07 00:48:40;;;;;;;196.40;101.00;;;;;;;-128.00;-1.00;-1.00;104932;1264;1005007;-75
2023/02/07 00:51:07;;;;;;;211.50;102.10;;;;;;;-128.00;-1.00;-1.00;104956;1263;1004243;-76
2023/02/07 00:53:34;;;;;;;208.80;101.40;;;;;;;-128.00;-1.00;-1.00;104955;1264;1004078;-76
2023/02/07 00:56:01;;;;;;;217.50;107.50;;;;;;;-128.00;-1.00;-1.00;104712;1264;1004276;-77
2023/02/07 00:58:28;;;;;;;196.10;101.60;;;;;;;-128.00;-1.00;-1.00;103848;1264;1004243;-76
2023/02/07 01:00:54;;;;;;;218.30;111.60;;;;;;;-128.00;-1.00;-1.00;104060;1264;1003907;-76
2023/02/07 01:03:21;;;;;;;211.40;101.60;;;;;;;-128.00;-1.00;-1.00;104954;1264;1004134;-76
2023/02/07 01:05:48;;;;;;;214.20;108.70;;;;;;;-128.00;-1.00;-1.00;104232;1263;1004081;-76
2023/02/07 01:08:15;;;;;;;219.50;112.70;;;;;;;-128.00;-1.00;-1.00;104176;1264;1005138;-76
2023/02/07 01:10:43;;;;;;;214.80;114.40;;;;;;;-128.00;-1.00;-1.00;104946;1262;1003828;-76
2023/02/07 01:13:11;;;;;;;205.30;105.40;;;;;;;-128.00;-1.00;-1.00;104211;1264;1004012;-76
2023/02/07 01:15:40;;;;;;;194.10;99.50;;;;;;;-128.00;-1.00;-1.00;104963;1264;1004047;-77
2023/02/07 01:18:07;;;;;;;186.00;97.40;;;;;;;-128.00;-1.00;-1.00;104959;1264;1056713;-76
2023/02/07 01:20:34;;;;;;;193.00;104.40;;;;;;;-128.00;-1.00;-1.00;104735;1268;1004992;-75
2023/02/07 01:23:02;;;;;;;186.20;96.60;;;;;;;-128.00;-1.00;-1.00;103955;1268;1003923;-75
2023/02/07 01:25:29;;;;;;;197.60;103.90;;;;;;;-128.00;-1.00;-1.00;104716;1268;1004078;-75
2023/02/07 01:27:56;;;;;;;187.90;102.10;;;;;;;-128.00;-1.00;-1.00;104716;1268;1004635;-76
2023/02/07 01:30:23;;;;;;;200.00;103.30;;;;;;;-128.00;-1.00;-1.00;104721;1268;1004228;-76
2023/02/07 01:32:49;;;;;;;189.10;100.20;;;;;;;-128.00;-1.00;-1.00;104721;1268;1003549;-76
2023/02/07 01:35:16;;;;;;;198.10;100.80;;;;;;;-128.00;-1.00;-1.00;104713;1268;1004959;-74
2023/02/07 01:37:43;;;;;;;194.90;102.40;;;;;;;-128.00;-1.00;-1.00;104704;1268;1003551;-75
2023/02/07 01:40:11;;;;;;;187.70;99.20;;;;;;;-128.00;-1.00;-1.00;104698;1268;1004965;-75
2023/02/07 01:42:38;;;;;;;193.10;100.10;;;;;;;-128.00;-1.00;-1.00;104543;1268;1005081;-77
2023/02/07 01:45:21;;;;;;;210.60;155.40;;;;;;;-128.00;-1.00;-1.00;104716;1268;1003768;-76
2023/02/07 01:47:48;;;;;;;199.70;100.10;;;;;;;-128.00;-1.00;-1.00;104732;1268;1045913;-73
2023/02/07 01:50:16;;;;;;;197.80;103.80;;;;;;;-128.00;-1.00;-1.00;104732;1268;1003339;-75
2023/02/07 01:52:43;;;;;;;197.00;99.00;;;;;;;-128.00;-1.00;-1.00;104932;1264;1004224;-75
2023/02/07 01:55:17;;;;;;;198.90;101.40;;;;;;;-128.00;-1.00;-1.00;104947;1264;1004164;-75
2023/02/07 01:57:44;;;;;;;191.80;102.10;;;;;;;-128.00;-1.00;-1.00;104951;1264;1059681;-75
2023/02/07 02:00:14;;;;;;;193.30;102.10;;;;;;;-128.00;-1.00;-1.00;104944;1264;1004684;-76
2023/02/07 02:02:41;;;;;;;;;;;;;;;-128.00;-1.00;-1.00;104960;1264;1046478;-76
2023/02/07 02:05:09;;;;;;;193.00;91.70;;;;;;;-128.00;-1.00;-1.00;104173;1264;1004027;-75
2023/02/07 02:07:38;;;;;;;174.30;98.20;;;;;;;-128.00;-1.00;-1.00;104201;1264;1006513;-76
2023/02/07 02:10:17;;;;;;;194.20;98.10;;;;;;;-128.00;-1.00;-1.00;104166;1264;1060724;-74
2023/02/07 02:13:08;;;;;;;192.70;100.70;;;;;;;-128.00;-1.00;-1.00;104588;1269;1046332;-75
2023/02/07 02:15:57;;;;;;;180.40;93.00;;;;;;;-128.00;-1.00;-1.00;104362;1271;1046277;-75
2023/02/07 02:18:38;;;;;;;181.70;94.70;;;;;;;-128.00;-1.00;-1.00;104367;1271;1062740;-75
2023/02/07 02:21:20;;;;;;;195.60;101.00;;;;;;;-128.00;-1.00;-1.00;103458;1272;1056842;-75
2023/02/07 02:24:04;;;;;;;202.50;105.80;;;;;;;-128.00;-1.00;-1.00;104378;1271;1059430;-74
2023/02/07 02:26:33;;;;;;;192.20;102.10;;;;;;;-128.00;-1.00;-1.00;104038;1272;1046677;-76
2023/02/07 02:29:17;;;;;;;186.60;98.90;;;;;;;-128.00;-1.00;-1.00;104384;1271;1046194;-76
2023/02/07 02:32:02;;;;;;;187.00;95.10;;;;;;;-128.00;-1.00;-1.00;104190;1272;1061671;-75
2023/02/07 02:34:42;;;;;;;189.40;99.00;;;;;;;-128.00;-1.00;-1.00;104417;1271;1056732;-74
2023/02/07 02:37:22;;;;;;;182.10;100.70;;;;;;;-128.00;-1.00;-1.00;104356;1271;1059377;-75
2023/02/07 02:40:17;;;;;;;191.30;100.20;;;;;;;-128.00;-1.00;-1.00;103616;1271;1046340;-76
2023/02/07 02:42:52;;;;;;;200.70;106.10;;;;;;;-128.00;-1.00;-1.00;103929;1276;1046522;-75
2023/02/07 02:45:24;;;;;;;198.90;105.10;;;;;;;-128.00;-1.00;-1.00;103154;1277;1062409;-77
2023/02/07 02:47:51;;;;;;;201.20;105.40;;;;;;;-128.00;-1.00;-1.00;104032;1274;1054770;-75
2023/02/07 02:50:24;;;;;;;193.40;99.60;;;;;;;-128.00;-1.00;-1.00;104140;1271;1004554;-75
2023/02/07 02:52:51;;;;;;;187.70;97.10;;;;;;;-128.00;-1.00;-1.00;104409;1270;1046990;-74
2023/02/07 02:55:43;;;;;;;190.30;101.00;;;;;;;-128.00;-1.00;-1.00;104420;1271;1004963;-74
2023/02/07 02:58:18;;;;;;;158.30;86.40;;;;;;;-128.00;-1.00;-1.00;104408;1271;1062755;-75
2023/02/07 03:01:05;;;;;;;177.90;93.30;;;;;;;-128.00;-1.00;-1.00;104410;1271;1056004;-75
2023/02/07 03:03:53;;;;;;;162.50;85.90;;;;;;;-128.00;-1.00;-1.00;103639;1271;1058108;-75
2023/02/07 03:06:22;;;;;;;202.60;102.10;;;;;;;-128.00;-1.00;-1.00;104388;1271;1048119;-76
2023/02/07 03:09:08;;;;;;;178.50;94.80;;;;;;;-128.00;-1.00;-1.00;104395;1271;1047887;-76
2023/02/07 03:11:45;;;;;;;190.00;97.00;;;;;;;-128.00;-1.00;-1.00;104423;1271;1062578;-75
2023/02/07 03:14:24;;;;;;;201.60;105.10;;;;;;;-128.00;-1.00;-1.00;104395;1271;1055211;-76
2023/02/07 03:17:00;;;;;;;166.00;80.60;;;;;;;-128.00;-1.00;-1.00;104457;1270;1059576;-76
2023/02/07 03:19:33;;;;;;;205.00;103.40;;;;;;;-128.00;-1.00;-1.00;104491;1264;1045776;-75
2023/02/07 03:22:10;;;;;;;189.00;96.80;;;;;;;-128.00;-1.00;-1.00;104966;1264;1047739;-75
2023/02/07 03:24:42;;;;;;;178.90;92.00;;;;;;;-128.00;-1.00;-1.00;104947;1264;1063045;-75
2023/02/07 03:27:13;;;;;;;191.00;95.40;;;;;;;-128.00;-1.00;-1.00;104754;1264;1056341;-76
2023/02/07 03:29:44;;;;;;;195.90;99.20;;;;;;;-128.00;-1.00;-1.00;104942;1264;1058075;-76
2023/02/07 03:32:13;;;;;;;195.40;101.30;;;;;;;-128.00;-1.00;-1.00;104081;1264;1046279;-76
2023/02/07 03:34:57;;;;;;;196.20;101.20;;;;;;;-128.00;-1.00;-1.00;104226;1264;1047347;-75
2023/02/07 03:37:30;;;;;;;211.10;105.70;;;;;;;-128.00;-1.00;-1.00;104925;1264;1062592;-73
2023/02/07 03:39:57;;;;;;;189.70;95.60;;;;;;;-128.00;-1.00;-1.00;104195;1264;1055274;-75
2023/02/07 03:42:52;;;;;;;204.50;98.60;;;;;;;-128.00;-1.00;-1.00;104066;1264;1003950;-74
2023/02/07 03:45:20;;;;;;;207.70;100.20;;;;;;;-128.00;-1.00;-1.00;104743;1264;1045817;-75
2023/02/07 03:47:47;;;;;;;203.30;105.40;;;;;;;-128.00;-1.00;-1.00;104853;1264;1004050;-75
2023/02/07 03:50:15;;;;;;;209.10;106.10;;;;;;;-128.00;-1.00;-1.00;104203;1264;2002525;-75
2023/02/07 03:52:42;;;;;;;205.60;98.40;;;;;;;-128.00;-1.00;-1.00;104932;1263;1004009;-76
2023/02/07 03:55:09;;;;;;;208.70;105.80;;;;;;;-128.00;-1.00;-1.00;104640;1264;1004450;-74
2023/02/07 03:57:36;;;;;;;206.30;106.50;;;;;;;-128.00;-1.00;-1.00;104188;1264;1003932;-76
2023/02/07 04:00:06;;;;;;;212.70;102.40;;;;;;;-128.00;-1.00;-1.00;104989;1264;1004917;-76
2023/02/07 04:02:33;;;;;;;227.80;107.30;;;;;;;-128.00;-1.00;-1.00;104213;1264;1062232;-75
2023/02/07 04:05:00;;;;;;;262.60;121.60;;;;;;;-128.00;-1.00;-1.00;104237;1264;1003886;-75
2023/02/07 04:07:26;;;;;;;259.90;122.50;;;;;;;-128.00;-1.00;-1.00;104168;1264;1003855;-74
2023/02/07 04:09:53;;;;;;;277.60;124.60;;;;;;;-128.00;-1.00;-1.00;104951;1264;1004543;-74
2023/02/07 04:12:20;;;;;;;271.40;125.80;;;;;;;-128.00;-1.00;-1.00;104982;1264;1004162;-75
2023/02/07 04:14:46;;;;;;;262.40;123.30;;;;;;;-128.00;-1.00;-1.00;104982;1265;1004328;-75
2023/02/07 04:17:13;;;;;;;274.90;125.80;;;;;;;-128.00;-1.00;-1.00;104969;1264;1003620;-75
2023/02/07 04:19:40;;;;;;;269.80;127.80;;;;;;;-128.00;-1.00;-1.00;104205;1264;1003624;-75
2023/02/07 04:22:09;;;;;;;262.50;125.00;;;;;;;-128.00;-1.00;-1.00;104187;1264;1004282;-75
2023/02/07 04:24:36;;;;;;;261.10;120.40;;;;;;;-128.00;-1.00;-1.00;104206;1264;1047494;-75
2023/02/07 04:27:03;;;;;;;215.30;107.50;;;;;;;-128.00;-1.00;-1.00;104957;1264;1004790;-75
2023/02/07 04:29:30;;;;;;;246.10;115.90;;;;;;;-128.00;-1.00;-1.00;104945;1264;1003881;-75
2023/02/07 04:31:56;;;;;;;257.70;119.70;;;;;;;-128.00;-1.00;-1.00;104715;1264;1003386;-76
2023/02/07 04:34:23;;;;;;;265.10;125.30;;;;;;;-128.00;-1.00;-1.00;104184;1264;1003959;-76
2023/02/07 04:36:50;;;;;;;261.60;120.70;;;;;;;-128.00;-1.00;-1.00;103896;1264;1004451;-75
2023/02/07 04:39:16;;;;;;;220.20;109.10;;;;;;;-128.00;-1.00;-1.00;104623;1264;1003789;-74
2023/02/07 04:41:43;;;;;;;246.60;119.70;;;;;;;-128.00;-1.00;-1.00;104961;1264;1003619;-75
2023/02/07 04:44:09;;;;;;;228.50;112.80;;;;;;;-128.00;-1.00;-1.00;104955;1264;1003647;-75
2023/02/07 04:46:36;;;;;;;243.70;118.70;;;;;;;-128.00;-1.00;-1.00;104963;1264;1003908;-75
2023/02/07 04:49:03;;;;;;;230.70;116.00;;;;;;;-128.00;-1.00;-1.00;103973;1264;1003496;-76
2023/02/07 04:51:31;;;;;;;245.90;123.60;;;;;;;-128.00;-1.00;-1.00;104943;1265;1003740;-75
2023/02/07 04:53:58;;;;;;;245.60;123.40;;;;;;;-128.00;-1.00;-1.00;104966;1264;1004259;-75
2023/02/07 04:56:25;;;;;;;235.70;117.90;;;;;;;-128.00;-1.00;-1.00;104098;1264;1004777;-76
2023/02/07 04:58:52;;;;;;;212.10;110.80;;;;;;;-128.00;-1.00;-1.00;104705;1270;1003609;-76
2023/02/07 05:01:19;;;;;;;237.00;123.30;;;;;;;-128.00;-1.00;-1.00;104730;1264;1004301;-76
2023/02/07 05:03:45;;;;;;;259.20;127.10;;;;;;;-128.00;-1.00;-1.00;104791;1264;1004719;-75
2023/02/07 05:06:12;;;;;;;245.00;123.10;;;;;;;-128.00;-1.00;-1.00;104933;1265;1004129;-75
2023/02/07 05:08:39;;;;;;;188.40;98.50;;;;;;;-128.00;-1.00;-1.00;104203;1264;1004651;-75
2023/02/07 05:11:06;;;;;;;217.30;107.80;;;;;;;-128.00;-1.00;-1.00;104959;1264;1003968;-75
2023/02/07 05:13:33;;;;;;;237.50;115.40;;;;;;;-128.00;-1.00;-1.00;104790;1264;1003261;-76
2023/02/07 05:16:04;;;;;;;232.40;111.50;;;;;;;-128.00;-1.00;-1.00;104958;1264;1004916;-75
2023/02/07 05:18:30;;;;;;;192.20;92.30;;;;;;;-128.00;-1.00;-1.00;104743;1265;1056809;-75
2023/02/07 05:20:57;;;;;;;200.50;103.30;;;;;;;-128.00;-1.00;-1.00;104188;1264;1004340;-75
2023/02/07 05:23:24;;;;;;;215.80;107.60;;;;;;;-128.00;-1.00;-1.00;104944;1264;1003635;-76
2023/02/07 05:25:51;;;;;;;198.50;97.30;;;;;;;-128.00;-1.00;-1.00;104963;1264;1004574;-76
2023/02/07 05:28:17;;;;;;;223.40;109.00;;;;;;;-128.00;-1.00;-1.00;104976;1264;1004184;-76
2023/02/07 05:30:44;;;;;;;218.70;104.50;;;;;;;-128.00;-1.00;-1.00;104987;1264;1003795;-76
2023/02/07 05:33:11;;;;;;;205.70;99.50;;;;;;;-128.00;-1.00;-1.00;104179;1264;1003949;-76
2023/02/07 05:35:43;;;;;;;213.40;102.90;;;;;;;-128.00;-1.00;-1.00;103934;1265;1003968;-76
2023/02/07 05:38:13;;;;;;;219.10;109.70;;;;;;;-128.00;-1.00;-1.00;104952;1264;1047962;-75
2023/02/07 05:40:42;;;;;;;189.40;97.90;;;;;;;-128.00;-1.00;-1.00;104184;1266;1062102;-74
2023/02/07 05:43:10;;;;;;;211.40;105.90;;;;;;;-128.00;-1.00;-1.00;104925;1264;1056308;-76
2023/02/07 05:45:37;;;;;;;229.40;115.50;;;;;;;-128.00;-1.00;-1.00;104620;1265;1004224;-75
2023/02/07 05:48:04;;;;;;;207.90;105.90;;;;;;;-128.00;-1.00;-1.00;104946;1264;1003371;-75
2023/02/07 05:50:31;;;;;;;217.30;107.70;;;;;;;-128.00;-1.00;-1.00;104966;1264;1003892;-76
2023/02/07 05:52:58;;;;;;;212.60;108.40;;;;;;;-128.00;-1.00;-1.00;104949;1264;1003547;-75
2023/02/07 05:55:25;;;;;;;203.20;102.90;;;;;;;-128.00;-1.00;-1.00;104210;1266;1005066;-76
2023/02/07 05:57:52;;;;;;;183.00;94.20;;;;;;;-128.00;-1.00;-1.00;104640;1264;1003636;-76
2023/02/07 06:00:19;;;;;;;216.60;106.40;;;;;;;-128.00;-1.00;-1.00;104959;1264;1004884;-75
2023/02/07 06:02:46;;;;;;;214.70;106.90;;;;;;;-128.00;-1.00;-1.00;104658;1267;1004093;-75
2023/02/07 06:05:16;;;;;;;214.90;114.10;;;;;;;-128.00;-1.00;-1.00;104772;1266;1004333;-75
2023/02/07 06:07:43;;;;;;;225.60;114.00;;;;;;;-128.00;-1.00;-1.00;104977;1265;1056223;-75
2023/02/07 06:10:10;;;;;;;205.10;103.50;;;;;;;-128.00;-1.00;-1.00;104949;1264;1005008;-75
2023/02/07 06:12:37;;;;;;;168.60;87.40;;;;;;;-128.00;-1.00;-1.00;104870;1264;1004070;-75
2023/02/07 06:15:05;;;;;;;207.80;106.70;;;;;;;-128.00;-1.00;-1.00;104935;1264;1003844;-77
2023/02/07 06:17:32;;;;;;;185.10;97.70;;;;;;;-128.00;-1.00;-1.00;104694;1265;1004715;-75
2023/02/07 06:19:58;;;;;;;188.80;99.20;;;;;;;-128.00;-1.00;-1.00;104975;1264;1004434;-76
2023/02/07 06:22:25;;;;;;;199.50;100.20;;;;;;;-128.00;-1.00;-1.00;104191;1264;1004047;-76
2023/02/07 06:24:52;;;;;;;191.30;100.90;;;;;;;-128.00;-1.00;-1.00;104926;1264;1004504;-76
2023/02/07 06:27:19;;;;;;;191.00;100.10;;;;;;;-128.00;-1.00;-1.00;104949;1264;1004628;-76
2023/02/07 06:29:46;;;;;;;213.50;107.40;;;;;;;-128.00;-1.00;-1.00;104929;1266;1003947;-75
2023/02/07 06:32:12;;;;;;;209.40;110.40;;;;;;;-128.00;-1.00;-1.00;104748;1264;1004397;-76
2023/02/07 06:34:39;;;;;;;230.20;112.90;;;;;;;-128.00;-1.00;-1.00;104933;1264;1004359;-75
2023/02/07 06:37:06;;;;;;;190.70;100.60;;;;;;;-128.00;-1.00;-1.00;104945;1264;1003955;-76
2023/02/07 06:39:33;;;;;;;196.20;104.70;;;;;;;-128.00;-1.00;-1.00;104667;1264;1004230;-76
2023/02/07 06:41:59;;;;;;;213.50;106.10;;;;;;;-128.00;-1.00;-1.00;104952;1264;1005198;-76
2023/02/07 06:44:26;;;;;;;185.80;97.40;;;;;;;-128.00;-1.00;-1.00;104946;1266;1004535;-76
2023/02/07 06:46:53;;;;;;;210.00;107.90;;;;;;;-128.00;-1.00;-1.00;104966;1264;1004127;-76
2023/02/07 06:49:19;;;;;;;208.00;104.70;;;;;;;-128.00;-1.00;-1.00;104955;1264;1005723;-76
2023/02/07 06:51:46;;;;;;;173.60;90.00;;;;;;;-128.00;-1.00;-1.00;104209;1264;1004290;-75
2023/02/07 06:54:13;;;;;;;184.40;96.10;;;;;;;-128.00;-1.00;-1.00;104698;1264;1004664;-76
2023/02/07 06:56:40;;;;;;;186.30;100.70;;;;;;;-128.00;-1.00;-1.00;104974;1264;1003927;-75
2023/02/07 06:59:06;;;;;;;141.00;71.70;;;;;;;-128.00;-1.00;-1.00;104202;1264;1004213;-75
2023/02/07 07:01:33;;;;;;;133.00;71.10;;;;;;;-128.00;-1.00;-1.00;103446;1264;1003556;-76
2023/02/07 07:04:00;;;;;;;145.10;71.00;;;;;;;-128.00;-1.00;-1.00;104949;1264;1003843;-75
2023/02/07 07:06:26;;;;;;;143.30;73.80;;;;;;;-128.00;-1.00;-1.00;104989;1264;1004129;-77
2023/02/07 07:08:53;;;;;;;130.10;70.50;;;;;;;-128.00;-1.00;-1.00;104986;1264;1003347;-75
2023/02/07 07:11:20;;;;;;;133.00;68.80;;;;;;;-128.00;-1.00;-1.00;103800;1264;1004580;-76
2023/02/07 07:13:47;;;;;;;112.60;60.20;;;;;;;-128.00;-1.00;-1.00;104961;1266;1004851;-75
2023/02/07 07:16:13;;;;;;;110.00;59.80;;;;;;;-128.00;-1.00;-1.00;104215;1264;1003899;-76
2023/02/07 07:18:40;;;;;;;111.50;59.10;;;;;;;-128.00;-1.00;-1.00;104978;1264;1003938;-76
2023/02/07 07:21:09;;;;;;;107.60;57.40;;;;;;;-128.00;-1.00;-1.00;104201;1264;1004239;-76
2023/02/07 07:23:36;;;;;;;99.30;56.30;;;;;;;-128.00;-1.00;-1.00;104960;1264;1059179;-76
2023/02/07 07:26:03;;;;;;;104.40;56.00;;;;;;;-128.00;-1.00;-1.00;104944;1264;1004615;-76
2023/02/07 07:28:30;;;;;;;95.20;50.80;;;;;;;-128.00;-1.00;-1.00;104716;1264;1003955;-76
2023/02/07 07:31:02;;;;;;;108.00;54.20;;;;;;;-128.00;-1.00;-1.00;104969;1264;1003870;-76
2023/02/07 07:33:29;;;;;;;106.40;55.30;;;;;;;-128.00;-1.00;-1.00;104206;1264;1055211;-75
2023/02/07 07:35:57;;;;;;;108.00;55.20;;;;;;;-128.00;-1.00;-1.00;104949;1264;1003943;-76
2023/02/07 07:38:23;;;;;;;100.70;54.00;;;;;;;-128.00;-1.00;-1.00;104787;1264;1005346;-76
2023/02/07 07:40:50;;;;;;;98.50;53.10;;;;;;;-128.00;-1.00;-1.00;104945;1266;1003587;-75
2023/02/07 07:43:17;;;;;;;107.80;56.90;;;;;;;-128.00;-1.00;-1.00;104221;1266;1004077;-75
2023/02/07 07:45:44;;;;;;;96.70;54.00;;;;;;;-128.00;-1.00;-1.00;104222;1264;1004024;-76
2023/02/07 07:48:11;;;;;;;107.60;55.20;;;;;;;-128.00;-1.00;-1.00;104839;1264;1004510;-76
2023/02/07 07:50:38;;;;;;;96.90;54.40;;;;;;;-128.00;-1.00;-1.00;104174;1264;1004532;-76
2023/02/07 07:53:04;;;;;;;95.20;50.60;;;;;;;-128.00;-1.00;-1.00;104952;1264;1003382;-76
2023/02/07 07:55:31;;;;;;;88.70;48.70;;;;;;;-128.00;-1.00;-1.00;104973;1264;1004343;-75
2023/02/07 07:57:58;;;;;;;101.40;55.20;;;;;;;-128.00;-1.00;-1.00;104659;1264;1004408;-77
2023/02/07 08:00:24;;;;;;;105.30;54.10;;;;;;;-128.00;-1.00;-1.00;104175;1264;2003541;-77
2023/02/07 08:02:51;;;;;;;109.20;57.20;;;;;;;-128.00;-1.00;-1.00;104833;1264;1003935;-76
2023/02/07 08:05:20;;;;;;;100.10;51.90;;;;;;;-128.00;-1.00;-1.00;104987;1264;1003471;-76
2023/02/07 08:07:47;;;;;;;90.60;51.50;;;;;;;-128.00;-1.00;-1.00;104957;1264;1004311;-75
2023/02/07 08:10:13;;;;;;;95.50;54.00;;;;;;;-128.00;-1.00;-1.00;104952;1264;1004341;-76
2023/02/07 08:12:40;;;;;;;96.80;54.90;;;;;;;-128.00;-1.00;-1.00;104936;1264;1004271;-76
2023/02/07 08:15:08;;;;;;;98.80;52.30;;;;;;;-128.00;-1.00;-1.00;104930;1264;1004386;-76
2023/02/07 08:17:36;;;;;;;100.10;54.80;;;;;;;-128.00;-1.00;-1.00;104608;1264;1005157;-76
2023/02/07 08:20:04;;;;;;;98.80;50.30;;;;;;;-128.00;-1.00;-1.00;104941;1264;1003578;-74
2023/02/07 08:22:31;;;;;;;103.10;54.30;;;;;;;-128.00;-1.00;-1.00;104862;1264;1005078;-77
2023/02/07 08:24:57;;;;;;;106.70;57.50;;;;;;;-128.00;-1.00;-1.00;104438;1264;1004607;-77
2023/02/07 08:27:25;;;;;;;102.90;56.00;;;;;;;-128.00;-1.00;-1.00;104947;1264;1004920;-76
2023/02/07 08:29:52;;;;;;;106.30;53.30;;;;;;;-128.00;-1.00;-1.00;104967;1264;1004079;-78
2023/02/07 08:32:19;;;;;;;121.60;66.30;;;;;;;-128.00;-1.00;-1.00;104962;1263;1003722;-78
2023/02/07 08:34:46;;;;;;;123.70;65.50;;;;;;;-128.00;-1.00;-1.00;104763;1266;1004078;-78
2023/02/07 08:37:12;;;;;;;123.40;64.10;;;;;;;-128.00;-1.00;-1.00;104913;1264;1003982;-82
2023/02/07 08:39:39;;;;;;;142.70;74.80;;;;;;;-128.00;-1.00;-1.00;104925;1264;1004354;-82
2023/02/07 08:42:07;;;;;;;142.30;71.00;;;;;;;-128.00;-1.00;-1.00;104830;1267;1004692;-82
2023/02/07 08:44:35;;;;;;;132.20;71.70;;;;;;;-128.00;-1.00;-1.00;104801;1264;1003768;-80
2023/02/07 08:47:03;;;;;;;137.80;72.40;;;;;;;-128.00;-1.00;-1.00;104899;1266;1004217;-78
2023/02/07 08:49:30;;;;;;;134.60;69.70;;;;;;;-128.00;-1.00;-1.00;104935;1264;1004528;-78
2023/02/07 08:51:56;;;;;;;121.20;64.40;;;;;;;-128.00;-1.00;-1.00;104828;1264;1003940;-79
2023/02/07 08:54:23;;;;;;;134.50;70.70;;;;;;;-128.00;-1.00;-1.00;104938;1264;1005317;-79
2023/02/07 08:56:50;;;;;;;129.90;66.50;;;;;;;-128.00;-1.00;-1.00;104690;1264;1003478;-81
2023/02/07 08:59:17;;;;;;;119.40;64.30;;;;;;;-128.00;-1.00;-1.00;104986;1264;1004593;-79
2023/02/07 09:01:44;;;;;;;145.70;77.10;;;;;;;-128.00;-1.00;-1.00;104943;1264;1003919;-80
2023/02/07 09:04:11;;;;;;;126.00;68.50;;;;;;;-128.00;-1.00;-1.00;104884;1264;1003976;-82
2023/02/07 09:06:38;;;;;;;121.90;65.60;;;;;;;-128.00;-1.00;-1.00;104256;1264;1004343;-89
2023/02/07 09:09:06;;;;;;;100.70;56.40;;;;;;;-128.00;-1.00;-1.00;104918;1264;1003781;-78
2023/02/07 09:11:32;;;;;;;105.90;59.80;;;;;;;-128.00;-1.00;-1.00;104946;1264;1004370;-79
2023/02/07 09:13:59;;;;;;;105.90;57.30;;;;;;;-128.00;-1.00;-1.00;104934;1264;1003754;-78
2023/02/07 09:16:26;;;;;;;103.40;55.30;;;;;;;-128.00;-1.00;-1.00;104682;1264;1004182;-77
2023/02/07 09:18:52;;;;;;;96.80;54.30;;;;;;;-128.00;-1.00;-1.00;104952;1264;1003908;-78
2023/02/07 09:21:19;;;;;;;101.70;57.70;;;;;;;-128.00;-1.00;-1.00;104948;1264;1004790;-79
2023/02/07 09:23:46;;;;;;;93.40;53.00;;;;;;;-128.00;-1.00;-1.00;104864;1264;1004173;-77
2023/02/07 09:26:19;;;;;;;96.40;56.00;;;;;;;-128.00;-1.00;-1.00;104631;1266;1003757;-80
2023/02/07 09:28:46;;;;;;;103.80;55.50;;;;;;;-128.00;-1.00;-1.00;104931;1264;1046508;-80
2023/02/07 09:31:14;;;;;;;100.90;56.90;;;;;;;-128.00;-1.00;-1.00;104914;1267;1004151;-80
2023/02/07 09:33:42;;;;;;;97.10;56.40;;;;;;;-128.00;-1.00;-1.00;104939;1264;1062138;-82
2023/02/07 09:36:21;;;;;;;105.00;57.00;;;;;;;-128.00;-1.00;-1.00;104941;1264;1004784;-76
2023/02/07 09:38:47;;;;;;;102.70;59.90;;;;;;;-128.00;-1.00;-1.00;104697;1264;1060201;-77
2023/02/07 09:41:36;;;;;;;110.00;60.60;;;;;;;-128.00;-1.00;-1.00;104810;1263;1004436;-79
2023/02/07 09:44:06;;;;;;;100.90;56.50;;;;;;;-128.00;-1.00;-1.00;104921;1268;1046730;-78
2023/02/07 09:46:42;;;;;;;114.00;62.90;;;;;;;-128.00;-1.00;-1.00;104939;1264;1062251;-80
2023/02/07 09:49:26;;;;;;;100.60;57.60;;;;;;;-128.00;-1.00;-1.00;104954;1264;1055183;-80
2023/02/07 09:51:57;;;;;;;114.60;65.40;;;;;;;-128.00;-1.00;-1.00;104597;1264;1059521;-85
2023/02/07 09:54:45;;;;;;;110.60;66.10;;;;;;;-128.00;-1.00;-1.00;104809;1264;1047428;-79
2023/02/07 09:57:36;;;;;;;114.80;68.20;;;;;;;-128.00;-1.00;-1.00;104904;1268;1047199;-77
2023/02/07 10:00:20;;;;;;;109.00;64.10;;;;;;;-128.00;-1.00;-1.00;104960;1264;1062710;-79
2023/02/07 10:02:57;;;;;;;112.90;65.10;;;;;;;-128.00;-1.00;-1.00;104943;1264;1055183;-78
2023/02/07 10:05:42;;;;;;;112.40;63.30;;;;;;;-128.00;-1.00;-1.00;104908;1264;1059883;-78
2023/02/07 10:08:15;;;;;;;100.00;58.40;;;;;;;-128.00;-1.00;-1.00;104918;1264;1046578;-78
2023/02/07 10:11:12;;;;;;;112.10;66.50;;;;;;;-128.00;-1.00;-1.00;104638;1264;1046999;-78
2023/02/07 10:13:39;;;;;;;115.80;68.90;;;;;;;-128.00;-1.00;-1.00;104933;1264;1064365;-78
2023/02/07 10:16:41;;;;;;;117.20;68.60;;;;;;;-128.00;-1.00;-1.00;104961;1264;1004107;-78
2023/02/07 10:19:27;;;;;;;123.00;73.40;;;;;;;-128.00;-1.00;-1.00;104707;1264;1059061;-79
2023/02/07 10:22:10;;;;;;;128.00;72.40;;;;;;;-128.00;-1.00;-1.00;104919;1264;1046878;-82
2023/02/07 10:25:15;;;;;;;125.10;74.50;;;;;;;-128.00;-1.00;-1.00;104956;1264;1046348;-79
2023/02/07 10:28:01;;;;;;;117.10;69.40;;;;;;;-128.00;-1.00;-1.00;104345;1272;1064272;-78
2023/02/07 10:30:37;;;;;;;117.20;72.80;;;;;;;-128.00;-1.00;-1.00;104133;1272;1055959;-79
2023/02/07 10:33:13;;;;;;;119.80;67.70;;;;;;;-128.00;-1.00;-1.00;104282;1272;1058451;-79
2023/02/07 10:35:44;;;;;;;116.00;64.60;;;;;;;-128.00;-1.00;-1.00;104247;1273;1047685;-79
2023/02/07 10:38:22;;;;;;;103.40;61.90;;;;;;;-128.00;-1.00;-1.00;104025;1272;1047937;-79
2023/02/07 10:41:13;;;;;;;113.20;65.80;;;;;;;-128.00;-1.00;-1.00;104467;1272;1061756;-79
2023/02/07 10:43:42;;;;;;;90.40;54.70;;;;;;;-128.00;-1.00;-1.00;104243;1272;1054996;-79
2023/02/07 10:46:12;;;;;;;112.50;66.20;;;;;;;-128.00;-1.00;-1.00;104036;1273;1058800;-79
2023/02/07 10:48:39;;;;;;;98.30;61.50;;;;;;;-128.00;-1.00;-1.00;104200;1272;1046515;-79
2023/02/07 10:51:18;;;;;;;110.40;67.90;;;;;;;-128.00;-1.00;-1.00;104211;1272;1003869;-78
2023/02/07 10:53:46;;;;;;;100.60;60.30;;;;;;;-128.00;-1.00;-1.00;104285;1273;1061917;-78
2023/02/07 10:56:17;;;;;;;101.70;59.00;;;;;;;-128.00;-1.00;-1.00;104095;1274;1003919;-79
2023/02/07 10:58:44;;;;;;;104.40;61.80;;;;;;;-128.00;-1.00;-1.00;104207;1272;1057944;-78
2023/02/07 11:01:22;;;;;;;102.00;61.90;;;;;;;-128.00;-1.00;-1.00;104241;1272;1003811;-78
2023/02/07 11:03:49;;;;;;;109.80;65.20;;;;;;;-128.00;-1.00;-1.00;104078;1274;1046637;-77
2023/02/07 11:06:36;;;;;;;100.80;60.20;;;;;;;-128.00;-1.00;-1.00;104885;1264;1004804;-79